sensor_id;sensor_type;location;lat;lon;timestamp;temperature;humidity
2625;DHT22;1322;53.256;10.386;2023-06-22T00:00:58;21.30;99.90
2625;DHT22;1322;53.256;10.386;2023-06-22T00:03:24;21.20;99.90
2625;DHT22;1322;53.256;10.386;2023-06-22T00:05:51;21.20;99.90
2625;DHT22;1322;53.256;10.386;2023-06-22T00:08:18;21.20;99.90
2625;DHT22;1322;53.256;10.386;2023-06-22T00:10:44;21.10;99.90
2625;DHT22;1322;53.256;10.386;2023-06-22T00:13:10;21.10;99.90
2625;DHT22;1322;53.256;10.386;2023-06-22T00:15:37;21.10;99.90
2625;DHT22;1322;53.256;10.386;2023-06-22T00:18:04;21.10;99.90
2625;DHT22;1322;53.256;10.386;2023-06-22T00:20:30;21.00;99.90
2625;DHT22;1322;53.256;10.386;2023-06-22T00:22:58;21.00;99.90
2625;DHT22;1322;53.256;10.386;2023-06-22T00:25:24;21.00;99.90
2625;DHT22;1322;53.256;10.386;2023-06-22T00:27:50;20.90;99.90
2625;DHT22;1322;53.256;10.386;2023-06-22T00:30:17;20.90;99.90
2625;DHT22;1322;53.256;10.386;2023-06-22T00:32:43;20.90;99.90
2625;DHT22;1322;53.256;10.386;2023-06-22T00:35:10;20.80;99.90
2625;DHT22;1322;53.256;10.386;2023-06-22T00:37:36;20.80;99.90
2625;DHT22;1322;53.256;10.386;2023-06-22T00:40:04;20.80;99.90
2625;DHT22;1322;53.256;10.386;2023-06-22T00:42:30;20.80;99.90
2625;DHT22;1322;53.256;10.386;2023-06-22T00:44:56;20.80;99.90
2625;DHT22;1322;53.256;10.386;2023-06-22T00:47:22;20.80;99.90
2625;DHT22;1322;53.256;10.386;2023-06-22T00:49:49;20.80;99.90
2625;DHT22;1322;53.256;10.386;2023-06-22T00:52:20;20.80;99.90
2625;DHT22;1322;53.256;10.386;2023-06-22T00:54:51;20.70;99.90
2625;DHT22;1322;53.256;10.386;2023-06-22T00:57:17;20.70;99.90
2625;DHT22;1322;53.256;10.386;2023-06-22T00:59:44;20.70;99.90
2625;DHT22;1322;53.256;10.386;2023-06-22T01:02:11;20.60;99.90
2625;DHT22;1322;53.256;10.386;2023-06-22T01:04:39;20.60;99.90
2625;DHT22;1322;53.256;10.386;2023-06-22T01:07:39;20.50;99.90
2625;DHT22;1322;53.256;10.386;2023-06-22T01:12:42;20.40;99.90
2625;DHT22;1322;53.256;10.386;2023-06-22T01:15:32;20.40;99.90
2625;DHT22;1322;53.256;10.386;2023-06-22T01:17:59;20.40;99.90
2625;DHT22;1322;53.256;10.386;2023-06-22T01:20:28;20.30;99.90
2625;DHT22;1322;53.256;10.386;2023-06-22T01:23:09;20.30;99.90
2625;DHT22;1322;53.256;10.386;2023-06-22T01:25:53;20.30;99.90
2625;DHT22;1322;53.256;10.386;2023-06-22T01:28:40;20.30;99.90
2625;DHT22;1322;53.256;10.386;2023-06-22T01:31:09;20.20;99.90
2625;DHT22;1322;53.256;10.386;2023-06-22T01:33:40;20.20;99.90
2625;DHT22;1322;53.256;10.386;2023-06-22T01:36:07;20.20;99.90
2625;DHT22;1322;53.256;10.386;2023-06-22T01:38:33;20.20;99.90
2625;DHT22;1322;53.256;10.386;2023-06-22T01:41:00;20.20;99.90
2625;DHT22;1322;53.256;10.386;2023-06-22T01:43:27;20.20;99.90
2625;DHT22;1322;53.256;10.386;2023-06-22T01:45:58;20.20;99.90
2625;DHT22;1322;53.256;10.386;2023-06-22T01:48:24;20.20;99.90
2625;DHT22;1322;53.256;10.386;2023-06-22T01:50:52;20.10;99.90
2625;DHT22;1322;53.256;10.386;2023-06-22T01:53:21;20.10;99.90
2625;DHT22;1322;53.256;10.386;2023-06-22T01:55:46;20.10;99.90
2625;DHT22;1322;53.256;10.386;2023-06-22T01:58:12;20.10;99.90
2625;DHT22;1322;53.256;10.386;2023-06-22T02:00:40;20.10;99.90
2625;DHT22;1322;53.256;10.386;2023-06-22T02:03:13;20.00;99.90
2625;DHT22;1322;53.256;10.386;2023-06-22T02:05:49;20.00;99.90
2625;DHT22;1322;53.256;10.386;2023-06-22T02:08:23;20.00;99.90
2625;DHT22;1322;53.256;10.386;2023-06-22T02:10:51;20.00;99.90
2625;DHT22;1322;53.256;10.386;2023-06-22T02:13:18;20.00;99.90
2625;DHT22;1322;53.256;10.386;2023-06-22T02:15:45;20.00;99.90
2625;DHT22;1322;53.256;10.386;2023-06-22T02:18:12;20.00;99.90
2625;DHT22;1322;53.256;10.386;2023-06-22T02:20:38;20.00;99.90
2625;DHT22;1322;53.256;10.386;2023-06-22T02:23:05;19.80;99.90
2625;DHT22;1322;53.256;10.386;2023-06-22T02:25:32;19.80;99.90
2625;DHT22;1322;53.256;10.386;2023-06-22T02:27:57;19.80;99.90
2625;DHT22;1322;53.256;10.386;2023-06-22T02:30:23;19.80;99.90
2625;DHT22;1322;53.256;10.386;2023-06-22T02:32:48;19.80;99.90
2625;DHT22;1322;53.256;10.386;2023-06-22T02:35:14;19.80;99.90
2625;DHT22;1322;53.256;10.386;2023-06-22T02:37:40;19.80;99.90
2625;DHT22;1322;53.256;10.386;2023-06-22T02:40:09;19.80;99.90
2625;DHT22;1322;53.256;10.386;2023-06-22T02:42:39;19.80;99.90
2625;DHT22;1322;53.256;10.386;2023-06-22T02:45:05;19.80;99.90
2625;DHT22;1322;53.256;10.386;2023-06-22T02:47:31;19.80;99.90
2625;DHT22;1322;53.256;10.386;2023-06-22T02:49:57;19.80;99.90
2625;DHT22;1322;53.256;10.386;2023-06-22T02:52:22;19.80;99.90
2625;DHT22;1322;53.256;10.386;2023-06-22T02:54:48;19.70;99.90
2625;DHT22;1322;53.256;10.386;2023-06-22T02:57:13;20.00;99.90
2625;DHT22;1322;53.256;10.386;2023-06-22T02:59:40;19.80;99.90
2625;DHT22;1322;53.256;10.386;2023-06-22T03:02:08;19.70;99.90
2625;DHT22;1322;53.256;10.386;2023-06-22T03:04:34;19.70;99.90
2625;DHT22;1322;53.256;10.386;2023-06-22T03:07:00;19.70;99.90
2625;DHT22;1322;53.256;10.386;2023-06-22T03:09:27;19.70;99.90
2625;DHT22;1322;53.256;10.386;2023-06-22T03:11:56;19.70;99.90
2625;DHT22;1322;53.256;10.386;2023-06-22T03:14:22;19.70;99.90
2625;DHT22;1322;53.256;10.386;2023-06-22T03:16:48;19.80;99.90
2625;DHT22;1322;53.256;10.386;2023-06-22T03:19:14;19.80;99.90
2625;DHT22;1322;53.256;10.386;2023-06-22T03:21:39;19.80;99.90
2625;DHT22;1322;53.256;10.386;2023-06-22T03:24:07;19.80;99.90
2625;DHT22;1322;53.256;10.386;2023-06-22T03:26:33;19.90;99.90
2625;DHT22;1322;53.256;10.386;2023-06-22T03:28:58;19.90;99.90
2625;DHT22;1322;53.256;10.386;2023-06-22T03:31:24;19.90;99.90
2625;DHT22;1322;53.256;10.386;2023-06-22T03:33:50;19.90;99.90
2625;DHT22;1322;53.256;10.386;2023-06-22T03:36:19;20.00;99.90
2625;DHT22;1322;53.256;10.386;2023-06-22T03:38:46;20.10;99.90
2625;DHT22;1322;53.256;10.386;2023-06-22T03:41:12;20.10;99.90
2625;DHT22;1322;53.256;10.386;2023-06-22T03:43:38;20.20;99.90
2625;DHT22;1322;53.256;10.386;2023-06-22T03:46:03;20.30;99.90
2625;DHT22;1322;53.256;10.386;2023-06-22T03:48:29;20.40;99.90
2625;DHT22;1322;53.256;10.386;2023-06-22T03:50:54;20.50;99.90
2625;DHT22;1322;53.256;10.386;2023-06-22T03:53:20;20.60;99.90
2625;DHT22;1322;53.256;10.386;2023-06-22T03:55:51;20.70;99.90
2625;DHT22;1322;53.256;10.386;2023-06-22T03:58:18;20.80;99.90
2625;DHT22;1322;53.256;10.386;2023-06-22T04:00:45;20.80;99.90
2625;DHT22;1322;53.256;10.386;2023-06-22T04:03:11;20.80;99.90
2625;DHT22;1322;53.256;10.386;2023-06-22T04:05:38;20.70;99.90
2625;DHT22;1322;53.256;10.386;2023-06-22T04:08:05;20.60;99.90
2625;DHT22;1322;53.256;10.386;2023-06-22T04:10:30;20.50;99.90
2625;DHT22;1322;53.256;10.386;2023-06-22T04:12:56;20.40;99.90
2625;DHT22;1322;53.256;10.386;2023-06-22T04:15:22;20.40;99.90
2625;DHT22;1322;53.256;10.386;2023-06-22T04:17:48;20.50;99.90
2625;DHT22;1322;53.256;10.386;2023-06-22T04:20:13;20.70;99.90
2625;DHT22;1322;53.256;10.386;2023-06-22T04:22:39;20.80;99.90
2625;DHT22;1322;53.256;10.386;2023-06-22T04:25:06;20.80;99.90
2625;DHT22;1322;53.256;10.386;2023-06-22T04:27:33;20.90;99.90
2625;DHT22;1322;53.256;10.386;2023-06-22T04:30:03;21.00;99.90
2625;DHT22;1322;53.256;10.386;2023-06-22T04:32:29;21.10;99.90
2625;DHT22;1322;53.256;10.386;2023-06-22T04:34:55;21.20;99.90
2625;DHT22;1322;53.256;10.386;2023-06-22T04:37:21;21.40;99.90
2625;DHT22;1322;53.256;10.386;2023-06-22T04:39:49;21.50;99.90
2625;DHT22;1322;53.256;10.386;2023-06-22T04:42:15;21.70;99.90
2625;DHT22;1322;53.256;10.386;2023-06-22T04:44:40;21.80;99.90
2625;DHT22;1322;53.256;10.386;2023-06-22T04:47:08;21.90;99.90
2625;DHT22;1322;53.256;10.386;2023-06-22T04:49:34;22.10;99.90
2625;DHT22;1322;53.256;10.386;2023-06-22T04:52:04;22.20;99.90
2625;DHT22;1322;53.256;10.386;2023-06-22T04:54:30;22.30;99.90
2625;DHT22;1322;53.256;10.386;2023-06-22T04:57:06;22.40;99.90
2625;DHT22;1322;53.256;10.386;2023-06-22T04:59:36;22.70;99.90
2625;DHT22;1322;53.256;10.386;2023-06-22T05:02:04;22.80;99.90
2625;DHT22;1322;53.256;10.386;2023-06-22T05:04:31;22.90;99.90
2625;DHT22;1322;53.256;10.386;2023-06-22T05:06:58;23.00;99.90
2625;DHT22;1322;53.256;10.386;2023-06-22T05:09:24;23.00;99.90
2625;DHT22;1322;53.256;10.386;2023-06-22T05:11:50;22.90;99.90
2625;DHT22;1322;53.256;10.386;2023-06-22T05:14:17;23.00;99.90
2625;DHT22;1322;53.256;10.386;2023-06-22T05:16:43;23.10;99.90
2625;DHT22;1322;53.256;10.386;2023-06-22T05:19:09;23.40;99.90
2625;DHT22;1322;53.256;10.386;2023-06-22T05:21:35;23.70;99.90
2625;DHT22;1322;53.256;10.386;2023-06-22T05:24:00;23.90;99.90
2625;DHT22;1322;53.256;10.386;2023-06-22T05:26:32;24.10;99.90
2625;DHT22;1322;53.256;10.386;2023-06-22T05:28:58;24.20;99.90
2625;DHT22;1322;53.256;10.386;2023-06-22T05:31:24;24.30;99.90
2625;DHT22;1322;53.256;10.386;2023-06-22T05:33:51;24.20;99.90
2625;DHT22;1322;53.256;10.386;2023-06-22T05:36:17;24.30;99.90
2625;DHT22;1322;53.256;10.386;2023-06-22T05:38:45;24.40;99.90
2625;DHT22;1322;53.256;10.386;2023-06-22T05:41:11;24.50;99.90
2625;DHT22;1322;53.256;10.386;2023-06-22T05:43:37;24.40;99.90
2625;DHT22;1322;53.256;10.386;2023-06-22T05:46:03;24.40;99.90
2625;DHT22;1322;53.256;10.386;2023-06-22T05:48:29;24.50;99.90
2625;DHT22;1322;53.256;10.386;2023-06-22T05:50:55;24.70;99.90
2625;DHT22;1322;53.256;10.386;2023-06-22T05:53:21;24.90;99.90
2625;DHT22;1322;53.256;10.386;2023-06-22T05:55:46;25.00;99.90
2625;DHT22;1322;53.256;10.386;2023-06-22T05:58:12;25.10;99.90
2625;DHT22;1322;53.256;10.386;2023-06-22T06:00:39;25.20;99.90
2625;DHT22;1322;53.256;10.386;2023-06-22T06:03:04;25.30;99.90
2625;DHT22;1322;53.256;10.386;2023-06-22T06:05:32;25.50;99.90
2625;DHT22;1322;53.256;10.386;2023-06-22T06:07:58;25.40;99.90
2625;DHT22;1322;53.256;10.386;2023-06-22T06:10:24;25.40;99.90
2625;DHT22;1322;53.256;10.386;2023-06-22T06:12:50;25.50;99.90
2625;DHT22;1322;53.256;10.386;2023-06-22T06:15:16;25.50;99.90
2625;DHT22;1322;53.256;10.386;2023-06-22T06:17:49;25.50;99.90
2625;DHT22;1322;53.256;10.386;2023-06-22T06:20:20;25.30;99.90
2625;DHT22;1322;53.256;10.386;2023-06-22T06:22:47;25.20;99.90
2625;DHT22;1322;53.256;10.386;2023-06-22T06:25:13;24.90;99.90
2625;DHT22;1322;53.256;10.386;2023-06-22T06:27:45;24.70;99.90
2625;DHT22;1322;53.256;10.386;2023-06-22T06:30:11;24.60;99.90
2625;DHT22;1322;53.256;10.386;2023-06-22T06:32:38;24.70;99.90
2625;DHT22;1322;53.256;10.386;2023-06-22T06:35:06;24.90;99.90
2625;DHT22;1322;53.256;10.386;2023-06-22T06:37:31;25.20;99.90
2625;DHT22;1322;53.256;10.386;2023-06-22T06:39:57;25.60;99.90
2625;DHT22;1322;53.256;10.386;2023-06-22T06:42:23;25.70;99.90
2625;DHT22;1322;53.256;10.386;2023-06-22T06:44:49;25.90;99.90
2625;DHT22;1322;53.256;10.386;2023-06-22T06:47:15;26.20;99.90
2625;DHT22;1322;53.256;10.386;2023-06-22T06:49:42;26.50;99.90
2625;DHT22;1322;53.256;10.386;2023-06-22T06:52:08;26.60;99.90
2625;DHT22;1322;53.256;10.386;2023-06-22T06:54:33;26.70;99.90
2625;DHT22;1322;53.256;10.386;2023-06-22T06:56:59;27.00;99.90
2625;DHT22;1322;53.256;10.386;2023-06-22T06:59:25;27.10;99.90
2625;DHT22;1322;53.256;10.386;2023-06-22T07:01:51;27.20;99.90
2625;DHT22;1322;53.256;10.386;2023-06-22T07:04:16;27.50;99.90
2625;DHT22;1322;53.256;10.386;2023-06-22T07:06:42;27.70;99.90
2625;DHT22;1322;53.256;10.386;2023-06-22T07:09:08;27.70;99.90
2625;DHT22;1322;53.256;10.386;2023-06-22T07:11:34;28.00;99.90
2625;DHT22;1322;53.256;10.386;2023-06-22T07:14:01;28.40;99.90
2625;DHT22;1322;53.256;10.386;2023-06-22T07:16:26;28.50;99.90
2625;DHT22;1322;53.256;10.386;2023-06-22T07:18:53;28.30;99.90
2625;DHT22;1322;53.256;10.386;2023-06-22T07:21:18;28.00;99.90
2625;DHT22;1322;53.256;10.386;2023-06-22T07:23:44;27.90;99.90
2625;DHT22;1322;53.256;10.386;2023-06-22T07:26:13;27.80;99.90
2625;DHT22;1322;53.256;10.386;2023-06-22T07:28:39;28.00;99.90
2625;DHT22;1322;53.256;10.386;2023-06-22T07:31:06;28.30;99.90
2625;DHT22;1322;53.256;10.386;2023-06-22T07:33:31;28.10;99.90
2625;DHT22;1322;53.256;10.386;2023-06-22T07:35:57;28.00;99.90
2625;DHT22;1322;53.256;10.386;2023-06-22T07:38:23;27.90;99.90
2625;DHT22;1322;53.256;10.386;2023-06-22T07:40:48;27.70;99.90
2625;DHT22;1322;53.256;10.386;2023-06-22T07:43:14;27.80;99.90
2625;DHT22;1322;53.256;10.386;2023-06-22T07:45:40;28.30;99.90
2625;DHT22;1322;53.256;10.386;2023-06-22T07:48:07;28.20;99.90
2625;DHT22;1322;53.256;10.386;2023-06-22T07:50:33;28.30;99.90
2625;DHT22;1322;53.256;10.386;2023-06-22T07:52:58;28.30;99.90
2625;DHT22;1322;53.256;10.386;2023-06-22T07:55:24;28.30;99.90
2625;DHT22;1322;53.256;10.386;2023-06-22T07:57:50;28.30;99.90
2625;DHT22;1322;53.256;10.386;2023-06-22T08:00:17;28.30;99.90
2625;DHT22;1322;53.256;10.386;2023-06-22T08:02:45;28.40;99.90
2625;DHT22;1322;53.256;10.386;2023-06-22T08:05:11;28.30;99.90
2625;DHT22;1322;53.256;10.386;2023-06-22T08:07:37;28.40;99.90
2625;DHT22;1322;53.256;10.386;2023-06-22T08:10:05;28.30;99.90
2625;DHT22;1322;53.256;10.386;2023-06-22T08:12:30;28.40;99.90
2625;DHT22;1322;53.256;10.386;2023-06-22T08:14:56;28.40;99.90
2625;DHT22;1322;53.256;10.386;2023-06-22T08:17:25;28.40;99.90
2625;DHT22;1322;53.256;10.386;2023-06-22T08:19:51;28.50;99.90
2625;DHT22;1322;53.256;10.386;2023-06-22T08:22:17;28.60;99.90
2625;DHT22;1322;53.256;10.386;2023-06-22T08:24:43;28.60;99.90
2625;DHT22;1322;53.256;10.386;2023-06-22T08:27:10;28.60;99.90
2625;DHT22;1322;53.256;10.386;2023-06-22T08:29:37;28.80;99.90
2625;DHT22;1322;53.256;10.386;2023-06-22T08:32:03;28.60;99.90
2625;DHT22;1322;53.256;10.386;2023-06-22T08:34:29;28.20;99.90
2625;DHT22;1322;53.256;10.386;2023-06-22T08:36:54;28.10;99.90
2625;DHT22;1322;53.256;10.386;2023-06-22T08:39:20;27.90;99.90
2625;DHT22;1322;53.256;10.386;2023-06-22T08:41:47;28.10;99.90
2625;DHT22;1322;53.256;10.386;2023-06-22T08:44:13;28.10;99.90
2625;DHT22;1322;53.256;10.386;2023-06-22T08:46:39;28.00;99.90
2625;DHT22;1322;53.256;10.386;2023-06-22T08:49:06;28.30;99.90
2625;DHT22;1322;53.256;10.386;2023-06-22T08:51:32;28.10;99.90
2625;DHT22;1322;53.256;10.386;2023-06-22T08:53:58;28.10;99.90
2625;DHT22;1322;53.256;10.386;2023-06-22T08:56:23;27.90;99.90
2625;DHT22;1322;53.256;10.386;2023-06-22T08:58:49;28.10;99.90
2625;DHT22;1322;53.256;10.386;2023-06-22T09:01:14;28.00;99.90
2625;DHT22;1322;53.256;10.386;2023-06-22T09:03:43;28.00;99.90
2625;DHT22;1322;53.256;10.386;2023-06-22T09:06:08;27.80;99.90
2625;DHT22;1322;53.256;10.386;2023-06-22T09:08:39;27.70;99.90
2625;DHT22;1322;53.256;10.386;2023-06-22T09:11:04;27.90;99.90
2625;DHT22;1322;53.256;10.386;2023-06-22T09:13:31;27.80;99.90
2625;DHT22;1322;53.256;10.386;2023-06-22T09:15:57;28.20;99.90
2625;DHT22;1322;53.256;10.386;2023-06-22T09:18:22;28.00;99.90
2625;DHT22;1322;53.256;10.386;2023-06-22T09:20:48;28.20;99.90
2625;DHT22;1322;53.256;10.386;2023-06-22T09:23:14;27.80;99.90
2625;DHT22;1322;53.256;10.386;2023-06-22T09:25:40;27.80;99.90
2625;DHT22;1322;53.256;10.386;2023-06-22T09:28:06;28.10;99.90
2625;DHT22;1322;53.256;10.386;2023-06-22T09:30:32;28.10;99.90
2625;DHT22;1322;53.256;10.386;2023-06-22T09:32:57;28.20;99.90
2625;DHT22;1322;53.256;10.386;2023-06-22T09:35:23;28.10;99.90
2625;DHT22;1322;53.256;10.386;2023-06-22T09:37:48;28.30;99.90
2625;DHT22;1322;53.256;10.386;2023-06-22T09:40:14;27.90;99.90
2625;DHT22;1322;53.256;10.386;2023-06-22T09:42:42;28.00;99.90
2625;DHT22;1322;53.256;10.386;2023-06-22T09:45:08;28.40;99.90
2625;DHT22;1322;53.256;10.386;2023-06-22T09:47:34;28.60;99.90
2625;DHT22;1322;53.256;10.386;2023-06-22T09:49:59;28.60;99.90
2625;DHT22;1322;53.256;10.386;2023-06-22T09:52:25;28.40;99.90
2625;DHT22;1322;53.256;10.386;2023-06-22T09:54:50;28.10;99.90
2625;DHT22;1322;53.256;10.386;2023-06-22T09:57:16;28.10;99.90
2625;DHT22;1322;53.256;10.386;2023-06-22T09:59:42;28.00;99.90
2625;DHT22;1322;53.256;10.386;2023-06-22T10:02:08;28.40;99.90
2625;DHT22;1322;53.256;10.386;2023-06-22T10:04:34;28.60;99.90
2625;DHT22;1322;53.256;10.386;2023-06-22T10:07:01;28.60;99.90
2625;DHT22;1322;53.256;10.386;2023-06-22T10:09:26;28.70;99.90
2625;DHT22;1322;53.256;10.386;2023-06-22T10:11:52;28.70;99.90
2625;DHT22;1322;53.256;10.386;2023-06-22T10:14:18;28.80;99.90
2625;DHT22;1322;53.256;10.386;2023-06-22T10:16:45;28.90;99.90
2625;DHT22;1322;53.256;10.386;2023-06-22T10:19:10;28.90;99.90
2625;DHT22;1322;53.256;10.386;2023-06-22T10:21:36;28.80;99.90
2625;DHT22;1322;53.256;10.386;2023-06-22T10:24:02;28.90;99.90
2625;DHT22;1322;53.256;10.386;2023-06-22T10:26:34;29.00;99.90
2625;DHT22;1322;53.256;10.386;2023-06-22T10:29:04;29.20;99.90
2625;DHT22;1322;53.256;10.386;2023-06-22T10:31:29;29.40;99.90
2625;DHT22;1322;53.256;10.386;2023-06-22T10:33:55;29.50;99.90
2625;DHT22;1322;53.256;10.386;2023-06-22T10:36:22;29.60;99.90
2625;DHT22;1322;53.256;10.386;2023-06-22T10:38:48;29.80;99.90
2625;DHT22;1322;53.256;10.386;2023-06-22T10:41:14;29.80;99.90
2625;DHT22;1322;53.256;10.386;2023-06-22T10:43:40;29.70;99.90
2625;DHT22;1322;53.256;10.386;2023-06-22T10:46:06;29.50;99.90
2625;DHT22;1322;53.256;10.386;2023-06-22T10:48:32;29.20;99.90
2625;DHT22;1322;53.256;10.386;2023-06-22T10:50:58;29.30;99.90
2625;DHT22;1322;53.256;10.386;2023-06-22T10:53:24;29.20;99.90
2625;DHT22;1322;53.256;10.386;2023-06-22T10:55:49;29.60;99.90
2625;DHT22;1322;53.256;10.386;2023-06-22T10:58:17;29.80;99.90
2625;DHT22;1322;53.256;10.386;2023-06-22T11:00:43;29.70;99.90
2625;DHT22;1322;53.256;10.386;2023-06-22T11:03:09;29.70;99.90
2625;DHT22;1322;53.256;10.386;2023-06-22T11:05:34;29.80;99.90
2625;DHT22;1322;53.256;10.386;2023-06-22T11:08:00;29.70;99.90
2625;DHT22;1322;53.256;10.386;2023-06-22T11:10:25;29.70;99.90
2625;DHT22;1322;53.256;10.386;2023-06-22T11:12:52;29.80;99.90
2625;DHT22;1322;53.256;10.386;2023-06-22T11:15:18;29.90;99.90
2625;DHT22;1322;53.256;10.386;2023-06-22T11:17:44;29.90;99.90
2625;DHT22;1322;53.256;10.386;2023-06-22T11:20:10;29.60;99.90
2625;DHT22;1322;53.256;10.386;2023-06-22T11:22:38;29.70;99.90
2625;DHT22;1322;53.256;10.386;2023-06-22T11:25:05;29.40;99.90
2625;DHT22;1322;53.256;10.386;2023-06-22T11:27:30;29.90;99.90
2625;DHT22;1322;53.256;10.386;2023-06-22T11:29:56;30.10;99.90
2625;DHT22;1322;53.256;10.386;2023-06-22T11:32:22;30.50;99.90
2625;DHT22;1322;53.256;10.386;2023-06-22T11:34:48;30.20;99.90
2625;DHT22;1322;53.256;10.386;2023-06-22T11:37:13;30.30;99.90
2625;DHT22;1322;53.256;10.386;2023-06-22T11:39:41;30.50;99.90
2625;DHT22;1322;53.256;10.386;2023-06-22T11:42:07;31.00;99.90
2625;DHT22;1322;53.256;10.386;2023-06-22T11:44:33;31.30;99.90
2625;DHT22;1322;53.256;10.386;2023-06-22T11:46:59;31.20;99.90
2625;DHT22;1322;53.256;10.386;2023-06-22T11:49:26;31.00;99.90
2625;DHT22;1322;53.256;10.386;2023-06-22T11:51:52;30.70;99.90
2625;DHT22;1322;53.256;10.386;2023-06-22T11:54:18;30.50;99.90
2625;DHT22;1322;53.256;10.386;2023-06-22T11:56:43;30.50;99.90
2625;DHT22;1322;53.256;10.386;2023-06-22T11:59:09;30.40;99.90
2625;DHT22;1322;53.256;10.386;2023-06-22T12:01:34;30.10;99.90
2625;DHT22;1322;53.256;10.386;2023-06-22T12:04:00;29.90;99.90
2625;DHT22;1322;53.256;10.386;2023-06-22T12:06:26;29.80;99.90
2625;DHT22;1322;53.256;10.386;2023-06-22T12:08:51;29.80;99.90
2625;DHT22;1322;53.256;10.386;2023-06-22T12:11:17;29.60;99.90
2625;DHT22;1322;53.256;10.386;2023-06-22T12:13:43;29.60;99.90
2625;DHT22;1322;53.256;10.386;2023-06-22T12:16:08;29.90;99.90
2625;DHT22;1322;53.256;10.386;2023-06-22T12:18:34;30.00;99.90
2625;DHT22;1322;53.256;10.386;2023-06-22T12:20:59;29.70;99.90
2625;DHT22;1322;53.256;10.386;2023-06-22T12:23:25;29.80;99.90
2625;DHT22;1322;53.256;10.386;2023-06-22T12:25:51;30.00;99.90
2625;DHT22;1322;53.256;10.386;2023-06-22T12:28:16;29.90;99.90
2625;DHT22;1322;53.256;10.386;2023-06-22T12:30:42;30.00;99.90
2625;DHT22;1322;53.256;10.386;2023-06-22T12:33:08;30.10;99.90
2625;DHT22;1322;53.256;10.386;2023-06-22T12:35:34;29.90;99.90
2625;DHT22;1322;53.256;10.386;2023-06-22T12:38:00;29.80;99.90
2625;DHT22;1322;53.256;10.386;2023-06-22T12:40:25;29.60;99.90
2625;DHT22;1322;53.256;10.386;2023-06-22T12:42:51;29.80;99.90
2625;DHT22;1322;53.256;10.386;2023-06-22T12:45:17;29.80;99.90
2625;DHT22;1322;53.256;10.386;2023-06-22T12:47:43;30.10;99.90
2625;DHT22;1322;53.256;10.386;2023-06-22T12:50:08;30.10;99.90
2625;DHT22;1322;53.256;10.386;2023-06-22T12:52:36;30.10;99.90
2625;DHT22;1322;53.256;10.386;2023-06-22T12:55:05;30.10;99.90
2625;DHT22;1322;53.256;10.386;2023-06-22T12:57:30;30.00;99.90
2625;DHT22;1322;53.256;10.386;2023-06-22T12:59:56;29.90;99.90
2625;DHT22;1322;53.256;10.386;2023-06-22T13:02:23;29.90;99.90
2625;DHT22;1322;53.256;10.386;2023-06-22T13:04:49;29.70;99.90
2625;DHT22;1322;53.256;10.386;2023-06-22T13:07:15;29.90;99.90
2625;DHT22;1322;53.256;10.386;2023-06-22T13:09:40;30.20;99.90
2625;DHT22;1322;53.256;10.386;2023-06-22T13:12:06;29.90;99.90
2625;DHT22;1322;53.256;10.386;2023-06-22T13:14:32;30.10;99.90
2625;DHT22;1322;53.256;10.386;2023-06-22T13:16:58;29.80;99.90
2625;DHT22;1322;53.256;10.386;2023-06-22T13:19:23;29.70;99.90
2625;DHT22;1322;53.256;10.386;2023-06-22T13:21:49;29.40;99.90
2625;DHT22;1322;53.256;10.386;2023-06-22T13:24:15;29.30;99.90
2625;DHT22;1322;53.256;10.386;2023-06-22T13:26:41;29.20;99.90
2625;DHT22;1322;53.256;10.386;2023-06-22T13:29:07;28.50;99.90
2625;DHT22;1322;53.256;10.386;2023-06-22T13:31:33;28.60;99.90
2625;DHT22;1322;53.256;10.386;2023-06-22T13:33:58;28.40;99.90
2625;DHT22;1322;53.256;10.386;2023-06-22T13:36:24;28.10;99.90
2625;DHT22;1322;53.256;10.386;2023-06-22T13:38:50;28.10;99.90
2625;DHT22;1322;53.256;10.386;2023-06-22T13:41:15;28.20;99.90
2625;DHT22;1322;53.256;10.386;2023-06-22T13:43:41;28.40;99.90
2625;DHT22;1322;53.256;10.386;2023-06-22T13:46:07;28.30;99.90
2625;DHT22;1322;53.256;10.386;2023-06-22T13:48:32;28.00;99.90
2625;DHT22;1322;53.256;10.386;2023-06-22T13:50:58;28.00;99.90
2625;DHT22;1322;53.256;10.386;2023-06-22T13:53:25;28.20;99.90
2625;DHT22;1322;53.256;10.386;2023-06-22T13:55:51;28.20;99.90
2625;DHT22;1322;53.256;10.386;2023-06-22T13:58:17;28.40;99.90
2625;DHT22;1322;53.256;10.386;2023-06-22T14:00:45;28.70;99.90
2625;DHT22;1322;53.256;10.386;2023-06-22T14:03:10;28.80;99.90
2625;DHT22;1322;53.256;10.386;2023-06-22T14:05:36;29.00;99.90
2625;DHT22;1322;53.256;10.386;2023-06-22T14:08:02;29.20;99.90
2625;DHT22;1322;53.256;10.386;2023-06-22T14:10:27;28.80;99.90
2625;DHT22;1322;53.256;10.386;2023-06-22T14:12:53;28.70;99.90
2625;DHT22;1322;53.256;10.386;2023-06-22T14:15:19;28.50;99.90
2625;DHT22;1322;53.256;10.386;2023-06-22T14:17:44;28.50;99.90
2625;DHT22;1322;53.256;10.386;2023-06-22T14:20:10;28.20;99.90
2625;DHT22;1322;53.256;10.386;2023-06-22T14:22:36;28.50;99.90
2625;DHT22;1322;53.256;10.386;2023-06-22T14:25:04;28.40;99.90
2625;DHT22;1322;53.256;10.386;2023-06-22T14:27:30;28.40;99.90
2625;DHT22;1322;53.256;10.386;2023-06-22T14:29:57;28.40;99.90
2625;DHT22;1322;53.256;10.386;2023-06-22T14:32:23;28.00;99.90
2625;DHT22;1322;53.256;10.386;2023-06-22T14:34:49;28.00;99.90
2625;DHT22;1322;53.256;10.386;2023-06-22T14:37:15;28.00;99.90
2625;DHT22;1322;53.256;10.386;2023-06-22T14:39:41;28.10;99.90
2625;DHT22;1322;53.256;10.386;2023-06-22T14:42:08;28.40;99.90
2625;DHT22;1322;53.256;10.386;2023-06-22T14:44:33;28.80;99.90
2625;DHT22;1322;53.256;10.386;2023-06-22T14:47:00;28.90;99.90
2625;DHT22;1322;53.256;10.386;2023-06-22T14:49:26;28.80;99.90
2625;DHT22;1322;53.256;10.386;2023-06-22T14:51:52;28.80;99.90
2625;DHT22;1322;53.256;10.386;2023-06-22T14:54:17;28.50;99.90
2625;DHT22;1322;53.256;10.386;2023-06-22T14:56:43;28.40;99.90
2625;DHT22;1322;53.256;10.386;2023-06-22T14:59:09;28.20;99.90
2625;DHT22;1322;53.256;10.386;2023-06-22T15:01:35;28.30;99.90
2625;DHT22;1322;53.256;10.386;2023-06-22T15:04:00;28.60;99.90
2625;DHT22;1322;53.256;10.386;2023-06-22T15:06:26;28.70;99.90
2625;DHT22;1322;53.256;10.386;2023-06-22T15:08:52;28.50;99.90
2625;DHT22;1322;53.256;10.386;2023-06-22T15:11:18;28.60;99.90
2625;DHT22;1322;53.256;10.386;2023-06-22T15:13:43;28.50;99.90
2625;DHT22;1322;53.256;10.386;2023-06-22T15:16:09;28.40;99.90
2625;DHT22;1322;53.256;10.386;2023-06-22T15:18:35;28.10;99.90
2625;DHT22;1322;53.256;10.386;2023-06-22T15:21:04;28.00;99.90
2625;DHT22;1322;53.256;10.386;2023-06-22T15:23:30;28.00;99.90
2625;DHT22;1322;53.256;10.386;2023-06-22T15:25:57;28.10;99.90
2625;DHT22;1322;53.256;10.386;2023-06-22T15:28:23;27.90;99.90
2625;DHT22;1322;53.256;10.386;2023-06-22T15:30:49;27.70;99.90
2625;DHT22;1322;53.256;10.386;2023-06-22T15:33:15;27.60;99.90
2625;DHT22;1322;53.256;10.386;2023-06-22T15:35:41;27.70;99.90
2625;DHT22;1322;53.256;10.386;2023-06-22T15:38:07;27.60;99.90
2625;DHT22;1322;53.256;10.386;2023-06-22T15:40:32;27.30;99.90
2625;DHT22;1322;53.256;10.386;2023-06-22T15:42:58;27.40;99.90